Time;durP1;ratioP1;P1;durP2;ratioP2;P2;SDS_P1;SDS_P2;PMS_P1;PMS_P2;Temp;Humidity;BMP_temperature;BMP_pressure;BME280_temperature;BME280_humidity;BME280_pressure;Samples;Min_cycle;Max_cycle;Signal;HPM_P1;HPM_P2
2021/04/13 00:01:11;;;;;;;23.00;15.17;;;2.40;99.90;;;;;;5013562;28;20284;-73
2021/04/13 00:03:41;;;;;;;24.23;15.50;;;2.30;99.90;;;;;;5014788;28;20419;-72
2021/04/13 00:06:08;;;;;;;18.45;14.25;;;2.40;99.90;;;;;;5015306;28;20457;-72
2021/04/13 00:08:34;;;;;;;25.17;15.47;;;2.50;99.90;;;;;;5015022;28;20203;-72
2021/04/13 00:11:05;;;;;;;22.83;14.67;;;2.50;99.90;;;;;;5014452;28;20912;-73
2021/04/13 00:13:32;;;;;;;21.07;15.67;;;2.60;99.90;;;;;;5014871;28;20625;-73
2021/04/13 00:16:21;;;;;;;19.90;14.87;;;2.70;99.90;;;;;;5015120;28;20441;-72
2021/04/13 00:18:49;;;;;;;20.40;14.70;;;2.80;99.90;;;;;;5014821;28;20438;-72
2021/04/13 00:21:20;;;;;;;22.13;14.13;;;2.80;99.90;;;;;;5013778;28;20449;-73
2021/04/13 00:23:45;;;;;;;20.73;13.73;;;2.90;99.90;;;;;;5014126;28;20394;-73
2021/04/13 00:26:20;;;;;;;19.33;15.33;;;2.90;99.90;;;;;;5014423;28;20761;-72
2021/04/13 00:28:47;;;;;;;21.53;15.50;;;2.90;99.90;;;;;;5015117;28;20296;-72
2021/04/13 00:31:42;;;;;;;19.63;14.90;;;2.90;99.90;;;;;;5014441;28;20418;-72
2021/04/13 00:34:27;;;;;;;22.70;15.40;;;2.90;99.90;;;;;;5014119;28;20423;-73
2021/04/13 00:36:55;;;;;;;19.40;14.40;;;2.90;99.90;;;;;;5014298;28;20889;-73
2021/04/13 00:39:30;;;;;;;23.03;15.30;;;2.80;99.90;;;;;;5014751;28;20417;-73
2021/04/13 00:41:59;;;;;;;20.77;14.53;;;2.90;99.90;;;;;;5013718;28;20446;-73
2021/04/13 00:44:26;;;;;;;21.00;15.87;;;2.90;99.90;;;;;;5014361;28;20433;-72
2021/04/13 00:47:09;;;;;;;20.70;15.07;;;2.90;99.90;;;;;;5012942;28;20533;-72
2021/04/13 00:49:41;;;;;;;20.27;14.80;;;2.80;99.90;;;;;;5014137;28;20506;-73
2021/04/13 00:52:10;;;;;;;21.70;15.80;;;2.70;99.90;;;;;;5013904;28;20430;-72
2021/04/13 00:54:53;;;;;;;20.73;15.90;;;2.70;99.90;;;;;;5013023;28;20410;-72
2021/04/13 00:57:26;;;;;;;22.60;15.87;;;2.70;99.90;;;;;;5014115;28;20477;-72
2021/04/13 00:59:55;;;;;;;23.73;16.27;;;2.70;99.90;;;;;;5014066;28;20398;-72
2021/04/13 01:02:26;;;;;;;22.30;15.20;;;2.80;99.90;;;;;;5013628;28;20641;-72
2021/04/13 01:04:58;;;;;;;20.97;15.30;;;2.70;99.90;;;;;;5013933;28;20419;-72
2021/04/13 01:07:34;;;;;;;19.93;16.20;;;2.70;99.90;;;;;;5013549;28;20733;-72
2021/04/13 01:10:11;;;;;;;22.13;15.33;;;2.70;99.90;;;;;;5014001;28;20395;-73
2021/04/13 01:12:40;;;;;;;22.33;16.33;;;2.80;99.90;;;;;;5013180;28;20485;-72
2021/04/13 01:15:13;;;;;;;21.57;15.37;;;2.80;99.90;;;;;;5013083;28;20811;-71
2021/04/13 01:17:40;;;;;;;20.30;15.77;;;2.90;99.90;;;;;;5013738;28;20541;-72
2021/04/13 01:20:33;;;;;;;19.83;15.30;;;2.80;99.90;;;;;;5013766;28;20433;-72
2021/04/13 01:25:39;;;;;;;24.93;15.83;;;2.60;99.90;;;;;;5013745;28;20426;-72
2021/04/13 01:28:21;;;;;;;23.80;17.15;;;2.50;99.90;;;;;;5013579;28;20545;-73
2021/04/13 01:30:53;;;;;;;20.43;14.53;;;2.40;99.90;;;;;;5013887;28;20554;-72
2021/04/13 01:33:40;;;;;;;24.90;15.83;;;2.30;99.90;;;;;;5013761;28;20410;-72
2021/04/13 01:36:29;;;;;;;22.33;15.68;;;2.20;99.90;;;;;;5013970;28;20470;-72
2021/04/13 01:39:16;;;;;;;21.77;15.80;;;2.10;99.90;;;;;;5013757;28;20287;-72
2021/04/13 01:41:59;;;;;;;21.58;16.10;;;2.10;99.90;;;;;;5013615;28;20803;-72
2021/04/13 01:44:36;;;;;;;24.85;16.80;;;2.00;99.90;;;;;;5013506;28;20166;-72
2021/04/13 01:47:03;;;;;;;24.02;16.73;;;1.90;99.90;;;;;;5012034;28;20309;-74
2021/04/13 01:49:35;;;;;;;23.27;16.00;;;1.90;99.90;;;;;;5013237;28;20246;-72
2021/04/13 01:52:02;;;;;;;24.23;17.70;;;2.00;99.90;;;;;;5013349;28;20450;-72
2021/04/13 01:54:28;;;;;;;26.75;18.88;;;2.00;99.90;;;;;;5013679;28;20399;-71
2021/04/13 01:57:29;;;;;;;26.00;17.37;;;2.00;99.90;;;;;;5013845;28;20278;-72
2021/04/13 02:00:06;;;;;;;28.05;18.35;;;1.90;99.90;;;;;;5015740;28;20441;-72
2021/04/13 02:02:37;;;;;;;24.23;17.85;;;1.90;99.90;;;;;;5013022;28;20171;-72
2021/04/13 02:05:10;;;;;;;27.52;18.77;;;1.90;99.90;;;;;;5013618;28;20175;-71
2021/04/13 02:07:48;;;;;;;29.77;18.38;;;1.90;99.90;;;;;;5015062;28;20202;-71
2021/04/13 02:10:29;;;;;;;24.35;18.52;;;1.90;99.90;;;;;;5015538;28;20170;-72
2021/04/13 02:13:01;;;;;;;26.50;18.52;;;1.90;99.90;;;;;;5016877;28;20584;-72
2021/04/13 02:15:33;;;;;;;27.90;17.67;;;1.80;99.90;;;;;;5017106;28;20518;-72
2021/04/13 02:18:07;;;;;;;27.75;17.58;;;1.80;99.90;;;;;;5016876;28;20521;-73
2021/04/13 02:20:36;;;;;;;26.38;18.27;;;1.80;99.90;;;;;;5016851;28;20214;-72
2021/04/13 02:23:04;;;;;;;32.65;18.80;;;1.90;99.90;;;;;;5016687;28;20180;-71
2021/04/13 02:25:39;;;;;;;25.90;18.75;;;1.80;99.90;;;;;;5016550;28;20194;-72
2021/04/13 02:28:06;;;;;;;29.25;19.10;;;1.80;99.90;;;;;;5016738;28;20691;-72
2021/04/13 02:30:41;;;;;;;24.03;16.73;;;1.90;99.90;;;;;;5015256;28;20222;-72
2021/04/13 02:33:12;;;;;;;28.30;18.45;;;1.90;99.90;;;;;;5015483;28;20438;-72
2021/04/13 02:35:39;;;;;;;27.30;17.33;;;1.80;99.90;;;;;;5016794;28;20625;-72
2021/04/13 02:38:12;;;;;;;27.08;17.48;;;1.80;99.90;;;;;;5016162;28;20226;-72
2021/04/13 02:40:47;;;;;;;26.80;17.85;;;1.80;99.90;;;;;;5015036;28;20206;-72
2021/04/13 02:43:26;;;;;;;28.17;18.80;;;1.70;99.90;;;;;;5016153;28;20234;-71
2021/04/13 02:45:56;;;;;;;27.15;17.73;;;1.70;99.90;;;;;;5016441;28;20476;-72
2021/04/13 02:48:30;;;;;;;29.10;18.30;;;1.60;99.90;;;;;;5015087;28;20207;-72
2021/04/13 02:51:03;;;;;;;27.92;18.83;;;1.60;99.90;;;;;;5016444;28;20151;-71
2021/04/13 02:53:39;;;;;;;27.20;19.00;;;1.70;99.90;;;;;;5016190;28;20267;-73
2021/04/13 02:56:11;;;;;;;28.67;18.95;;;1.80;99.90;;;;;;5015392;28;20195;-73
2021/04/13 02:58:46;;;;;;;24.73;17.90;;;1.70;99.90;;;;;;5016153;28;20156;-72
2021/04/13 03:01:13;;;;;;;25.33;19.42;;;1.80;99.90;;;;;;5016034;28;20409;-72
2021/04/13 03:03:43;;;;;;;26.67;18.50;;;1.80;99.90;;;;;;5014676;28;20179;-72
2021/04/13 03:06:10;;;;;;;25.25;18.00;;;1.70;99.90;;;;;;5015748;28;20689;-74
2021/04/13 03:08:39;;;;;;;26.83;17.52;;;1.70;99.90;;;;;;5015782;28;20302;-71
2021/04/13 03:11:25;;;;;;;26.40;18.55;;;1.70;99.90;;;;;;5015947;28;20186;-73
2021/04/13 03:13:53;;;;;;;27.05;18.17;;;1.70;99.90;;;;;;5015673;28;20175;-72
2021/04/13 03:16:29;;;;;;;29.63;18.50;;;1.80;99.90;;;;;;5015568;28;20168;-73
2021/04/13 03:18:58;;;;;;;26.52;18.58;;;1.80;99.90;;;;;;5000817;28;20281;-73
2021/04/13 03:21:28;;;;;;;27.80;18.83;;;1.80;99.90;;;;;;5015685;28;20199;-73
2021/04/13 03:23:57;;;;;;;26.75;18.73;;;1.80;99.90;;;;;;5015523;28;20197;-72
2021/04/13 03:26:30;;;;;;;27.13;18.27;;;1.80;99.90;;;;;;5016124;28;20581;-72
2021/04/13 03:29:01;;;;;;;28.10;18.23;;;1.80;99.90;;;;;;5015537;28;20192;-73
2021/04/13 03:31:32;;;;;;;26.83;17.85;;;1.80;99.90;;;;;;5015462;28;20498;-73
2021/04/13 03:34:00;;;;;;;25.35;18.30;;;1.70;99.90;;;;;;5015188;28;20180;-73
2021/04/13 03:36:26;;;;;;;24.63;18.48;;;1.80;99.90;;;;;;5014312;28;20195;-73
2021/04/13 03:38:59;;;;;;;28.00;18.48;;;1.80;99.90;;;;;;5013724;28;20187;-72
2021/04/13 03:41:26;;;;;;;30.17;19.35;;;1.70;99.90;;;;;;5015521;28;20198;-72
2021/04/13 03:44:00;;;;;;;28.23;17.70;;;1.70;99.90;;;;;;5016086;28;20636;-72
2021/04/13 03:46:31;;;;;;;26.88;18.08;;;1.70;99.90;;;;;;5016054;28;20199;-72
2021/04/13 03:48:58;;;;;;;29.60;19.07;;;1.80;99.90;;;;;;5016673;28;20238;-73
2021/04/13 03:51:28;;;;;;;26.38;17.10;;;1.80;99.90;;;;;;5015214;28;20825;-72
2021/04/13 03:53:54;;;;;;;27.55;17.63;;;1.70;99.90;;;;;;5015153;28;20171;-73
2021/04/13 03:56:22;;;;;;;28.95;19.33;;;1.70;99.90;;;;;;5015239;28;20171;-72
2021/04/13 03:58:58;;;;;;;24.50;18.25;;;1.70;99.90;;;;;;5014703;28;20195;-73
2021/04/13 04:01:29;;;;;;;28.85;18.58;;;1.70;99.90;;;;;;5015081;28;20171;-73
2021/04/13 04:04:03;;;;;;;25.27;18.58;;;1.70;99.90;;;;;;5014642;28;20183;-73
2021/04/13 04:07:00;;;;;;;24.73;17.90;;;1.70;99.90;;;;;;5014769;28;20191;-73
2021/04/13 04:09:29;;;;;;;27.65;18.77;;;1.70;99.90;;;;;;5014245;28;20215;-73
2021/04/13 04:11:56;;;;;;;29.38;19.15;;;1.70;99.90;;;;;;5013897;28;20180;-72
2021/04/13 04:14:24;;;;;;;24.75;17.40;;;1.70;99.90;;;;;;5014242;28;20183;-72
2021/04/13 04:16:51;;;;;;;26.17;19.50;;;1.60;99.90;;;;;;5014439;28;20196;-72
2021/04/13 04:19:24;;;;;;;27.25;19.02;;;1.60;99.90;;;;;;5014782;28;20172;-73
2021/04/13 04:22:01;;;;;;;27.17;18.23;;;1.60;99.90;;;;;;5014667;28;20171;-73
2021/04/13 04:24:29;;;;;;;25.67;17.15;;;1.60;99.90;;;;;;5014504;28;20184;-73
2021/04/13 04:26:59;;;;;;;33.08;19.10;;;1.60;99.90;;;;;;5015163;28;20633;-73
2021/04/13 04:29:41;;;;;;;35.65;21.65;;;1.60;99.90;;;;;;5015004;28;20337;-73
2021/04/13 04:32:16;;;;;;;29.25;18.27;;;1.60;99.90;;;;;;5014674;28;20196;-74
2021/04/13 04:34:45;;;;;;;27.97;18.53;;;1.70;99.90;;;;;;5014337;28;20177;-73
2021/04/13 04:37:26;;;;;;;30.00;18.42;;;1.70;99.90;;;;;;5014749;28;20516;-73
2021/04/13 04:40:10;;;;;;;27.63;18.58;;;1.70;99.90;;;;;;5014515;28;20160;-73
2021/04/13 04:42:38;;;;;;;25.08;18.23;;;1.70;99.90;;;;;;5014185;28;20179;-73
2021/04/13 04:45:41;;;;;;;25.48;18.58;;;1.70;99.90;;;;;;5014792;28;20172;-73
2021/04/13 04:48:18;;;;;;;26.08;18.02;;;1.70;99.90;;;;;;5014311;28;20206;-73
2021/04/13 04:50:46;;;;;;;32.20;18.95;;;1.70;99.90;;;;;;5014134;28;20278;-73
2021/04/13 04:53:15;;;;;;;27.90;18.67;;;1.70;99.90;;;;;;5013957;28;20172;-73
2021/04/13 04:55:41;;;;;;;29.02;19.55;;;1.70;99.90;;;;;;5013112;28;20414;-73
2021/04/13 04:58:07;;;;;;;28.60;19.20;;;1.80;99.90;;;;;;5009669;28;20556;-73
2021/04/13 05:00:32;;;;;;;25.93;18.63;;;1.80;99.90;;;;;;4995258;28;20180;-72
2021/04/13 05:02:58;;;;;;;25.10;18.60;;;1.80;99.90;;;;;;5003045;28;20214;-71
2021/04/13 05:05:23;;;;;;;31.80;18.70;;;1.80;99.90;;;;;;5007241;28;20648;-72
2021/04/13 05:07:49;;;;;;;32.20;20.30;;;1.70;99.90;;;;;;5012658;28;20552;-73
2021/04/13 05:10:15;;;;;;;28.10;19.77;;;1.70;99.90;;;;;;5003615;28;20268;-72
2021/04/13 05:12:40;;;;;;;29.20;20.20;;;1.70;99.90;;;;;;5011834;28;20199;-72
2021/04/13 05:15:07;;;;;;;31.97;20.77;;;1.70;99.90;;;;;;5013419;28;20425;-72
2021/04/13 05:17:32;;;;;;;28.48;19.98;;;1.90;99.90;;;;;;5001021;28;20218;-72
2021/04/13 05:19:57;;;;;;;29.80;21.43;;;1.90;99.90;;;;;;5011114;28;20176;-72
2021/04/13 05:22:23;;;;;;;34.90;20.60;;;2.00;99.90;;;;;;5005784;28;20279;-73
2021/04/13 05:24:49;;;;;;;27.20;19.23;;;2.00;99.90;;;;;;5001727;28;20177;-72
2021/04/13 05:27:14;;;;;;;26.97;19.00;;;2.10;99.90;;;;;;4997624;28;20283;-73
2021/04/13 05:29:40;;;;;;;28.40;18.27;;;2.20;99.90;;;;;;5000131;28;20707;-74
2021/04/13 05:32:06;;;;;;;23.90;18.80;;;2.30;99.90;;;;;;4999978;28;20196;-72
2021/04/13 05:34:31;;;;;;;26.97;20.43;;;2.40;99.90;;;;;;5013849;28;20637;-74
2021/04/13 05:36:57;;;;;;;25.70;19.53;;;2.40;99.90;;;;;;5013507;28;20844;-74
2021/04/13 05:39:23;;;;;;;32.70;20.90;;;2.30;99.90;;;;;;5013655;28;20179;-74
2021/04/13 05:41:50;;;;;;;34.20;21.73;;;2.40;99.90;;;;;;5014575;28;20171;-75
2021/04/13 05:44:19;;;;;;;30.50;21.83;;;2.40;99.90;;;;;;5015635;28;20464;-75
2021/04/13 05:46:45;;;;;;;28.27;19.85;;;2.40;99.90;;;;;;5030772;28;20445;-73
2021/04/13 05:49:10;;;;;;;32.10;20.60;;;2.40;99.90;;;;;;5032031;28;20195;-74
2021/04/13 05:51:36;;;;;;;33.30;20.93;;;2.50;99.90;;;;;;5034004;28;20205;-73
2021/04/13 05:54:02;;;;;;;29.80;20.33;;;2.60;99.90;;;;;;5033517;28;20602;-73
2021/04/13 05:56:31;;;;;;;29.47;18.27;;;2.80;99.90;;;;;;5029380;28;20227;-73
2021/04/13 05:58:58;;;;;;;29.23;18.90;;;2.90;99.90;;;;;;5012400;28;20183;-73
2021/04/13 06:01:26;;;;;;;23.00;17.53;;;3.00;99.90;;;;;;5013940;28;20465;-74
2021/04/13 06:03:52;;;;;;;24.83;17.00;;;3.20;99.90;;;;;;5013991;28;20414;-71
2021/04/13 06:06:18;;;;;;;25.10;17.27;;;3.30;99.90;;;;;;5020199;28;20408;-74
2021/04/13 06:08:45;;;;;;;26.33;16.67;;;3.40;99.90;;;;;;5031138;28;20468;-73
2021/04/13 06:11:28;;;;;;;22.60;17.33;;;3.50;99.90;;;;;;5037761;28;20427;-73
2021/04/13 06:13:59;;;;;;;22.20;16.30;;;3.60;99.90;;;;;;5015987;28;20772;-73
2021/04/13 06:16:32;;;;;;;21.83;16.40;;;3.60;99.90;;;;;;5024553;28;21013;-72
2021/04/13 06:18:58;;;;;;;19.50;15.57;;;3.60;99.90;;;;;;5014674;28;20422;-72
2021/04/13 06:21:23;;;;;;;25.97;16.37;;;3.70;99.90;;;;;;5014953;28;20915;-72
2021/04/13 06:23:49;;;;;;;21.87;16.40;;;3.70;99.90;;;;;;5014345;28;20172;-72
2021/04/13 06:26:14;;;;;;;20.70;15.83;;;3.80;99.90;;;;;;5014440;28;20196;-74
2021/04/13 06:28:40;;;;;;;21.60;16.30;;;3.90;99.90;;;;;;5014126;28;20226;-73
2021/04/13 06:31:05;;;;;;;30.63;15.90;;;4.00;99.90;;;;;;5013481;28;20740;-73
2021/04/13 06:33:32;;;;;;;20.23;15.20;;;4.10;99.90;;;;;;5014284;28;20218;-72
2021/04/13 06:35:59;;;;;;;22.43;16.50;;;4.20;99.90;;;;;;5014769;28;20187;-72
2021/04/13 06:38:25;;;;;;;20.87;15.63;;;4.20;99.90;;;;;;5014722;28;20448;-72
2021/04/13 06:41:02;;;;;;;22.83;16.87;;;4.40;99.90;;;;;;5015772;28;20981;-72
2021/04/13 06:44:12;;;;;;;24.20;15.00;;;4.40;99.90;;;;;;5016297;28;20791;-73
2021/04/13 06:46:49;;;;;;;20.77;15.40;;;4.50;99.90;;;;;;5017117;28;20855;-72
2021/04/13 06:49:19;;;;;;;18.63;14.87;;;4.60;99.90;;;;;;5037273;28;20480;-72
2021/04/13 06:51:54;;;;;;;19.30;14.97;;;4.70;99.90;;;;;;5018755;28;20435;-72
2021/04/13 06:54:45;;;;;;;19.57;15.60;;;4.70;99.90;;;;;;5017468;28;20437;-73
2021/04/13 06:57:27;;;;;;;23.03;15.33;;;4.80;99.90;;;;;;5018756;28;20490;-73
2021/04/13 07:00:12;;;;;;;20.00;16.00;;;4.70;99.90;;;;;;5018062;28;21027;-73
2021/04/13 07:03:04;;;;;;;19.50;15.63;;;4.70;99.90;;;;;;5019039;28;20468;-74
2021/04/13 07:05:46;;;;;;;20.90;15.13;;;4.70;99.90;;;;;;5019512;28;20435;-73
2021/04/13 07:08:36;;;;;;;20.93;15.73;;;4.80;99.90;;;;;;5018823;28;20469;-73
2021/04/13 07:11:26;;;;;;;18.63;16.10;;;4.90;99.90;;;;;;5014376;28;20503;-73
2021/04/13 07:14:04;;;;;;;19.07;15.47;;;4.90;99.90;;;;;;5014359;28;20427;-75
2021/04/13 07:17:00;;;;;;;21.47;16.63;;;5.00;99.90;;;;;;5014335;28;21131;-73
2021/04/13 07:19:38;;;;;;;19.83;16.80;;;5.00;99.90;;;;;;5014846;28;20422;-72
2021/04/13 07:22:12;;;;;;;21.93;17.10;;;5.10;99.90;;;;;;5012579;28;20482;-73
2021/04/13 07:24:50;;;;;;;20.27;14.77;;;5.10;99.90;;;;;;5013319;28;20405;-72
2021/04/13 07:27:22;;;;;;;22.43;16.00;;;5.20;99.90;;;;;;5012537;28;20556;-73
2021/04/13 07:30:05;;;;;;;24.27;15.50;;;5.20;99.90;;;;;;5012832;28;20442;-73
2021/04/13 07:32:33;;;;;;;19.67;14.70;;;5.20;99.90;;;;;;5010896;28;20426;-74
2021/04/13 07:34:59;;;;;;;18.73;14.60;;;5.10;99.90;;;;;;5006503;28;20809;-73
2021/04/13 07:37:40;;;;;;;16.33;14.10;;;5.10;99.90;;;;;;5010408;28;20470;-73
2021/04/13 07:40:25;;;;;;;20.77;15.50;;;5.10;99.90;;;;;;5012236;28;20452;-73
2021/04/13 07:42:58;;;;;;;19.13;15.20;;;5.30;99.90;;;;;;4995552;28;20424;-74
2021/04/13 07:46:11;;;;;;;22.50;14.93;;;5.30;99.90;;;;;;5010612;28;20415;-74
2021/04/13 07:48:54;;;;;;;18.93;14.20;;;5.50;99.90;;;;;;5006746;28;20481;-73
2021/04/13 07:51:39;;;;;;;21.23;14.20;;;5.60;99.90;;;;;;5012110;28;20460;-74
2021/04/13 07:54:39;;;;;;;22.20;15.67;;;5.70;99.90;;;;;;5022793;28;20915;-73
2021/04/13 07:57:08;;;;;;;21.63;15.47;;;5.70;99.90;;;;;;5012671;28;20447;-74
2021/04/13 07:59:40;;;;;;;19.60;14.00;;;5.80;99.90;;;;;;5011011;28;20520;-74
2021/04/13 08:02:06;;;;;;;19.30;15.07;;;5.90;99.90;;;;;;5011380;28;20442;-74
2021/04/13 08:04:32;;;;;;;20.53;14.90;;;6.00;99.90;;;;;;5011771;28;20828;-72
2021/04/13 08:07:11;;;;;;;16.87;14.40;;;6.10;99.90;;;;;;5011792;28;20469;-76
2021/04/13 08:09:47;;;;;;;16.73;13.53;;;6.20;99.90;;;;;;5012701;28;20203;-73
2021/04/13 08:12:34;;;;;;;17.60;13.77;;;6.40;99.90;;;;;;5012501;28;20462;-74
2021/04/13 08:15:03;;;;;;;18.00;14.10;;;6.50;99.90;;;;;;5012082;28;20530;-74
2021/04/13 08:17:32;;;;;;;20.93;15.50;;;6.60;99.90;;;;;;5011455;28;20438;-74
2021/04/13 08:20:05;;;;;;;20.00;13.87;;;6.60;99.90;;;;;;5011391;28;20406;-73
2021/04/13 08:22:49;;;;;;;19.30;14.20;;;6.80;99.90;;;;;;5011977;28;20764;-74
2021/04/13 08:25:28;;;;;;;21.77;13.30;;;7.00;99.90;;;;;;5009979;28;20517;-74
2021/04/13 08:28:02;;;;;;;14.57;12.33;;;6.90;99.90;;;;;;5011509;28;20488;-73
2021/04/13 08:30:49;;;;;;;14.70;10.53;;;6.90;99.90;;;;;;5012220;28;20862;-73
2021/04/13 08:33:33;;;;;;;16.70;11.47;;;7.00;99.90;;;;;;5012214;28;20906;-76
2021/04/13 08:36:23;;;;;;;13.67;10.40;;;6.70;99.90;;;;;;5010199;28;20429;-72
2021/04/13 08:39:08;;;;;;;12.67;10.10;;;6.50;99.90;;;;;;5011646;28;20426;-74
2021/04/13 08:41:45;;;;;;;11.80;10.60;;;6.30;99.90;;;;;;5010690;28;20445;-74
2021/04/13 08:44:35;;;;;;;14.30;10.73;;;6.50;99.90;;;;;;5011255;28;20810;-74
2021/04/13 08:47:11;;;;;;;16.53;10.60;;;6.60;99.90;;;;;;5010506;28;20473;-73
2021/04/13 08:50:03;;;;;;;13.83;10.70;;;6.70;99.90;;;;;;5007382;28;20461;-76
2021/04/13 08:52:44;;;;;;;14.70;9.80;;;6.80;99.90;;;;;;5003131;28;20497;-74
2021/04/13 08:55:17;;;;;;;13.53;9.40;;;6.40;99.90;;;;;;5012894;28;20414;-74
2021/04/13 08:58:00;;;;;;;17.03;11.77;;;6.40;99.90;;;;;;5012910;28;20468;-73
2021/04/13 09:00:42;;;;;;;15.07;10.63;;;6.40;99.90;;;;;;5015420;28;20434;-74
2021/04/13 09:03:17;;;;;;;12.07;9.80;;;6.60;99.90;;;;;;5012072;28;20529;-73
2021/04/13 09:05:44;;;;;;;14.07;11.10;;;6.60;99.90;;;;;;5011452;28;20942;-74
2021/04/13 09:08:13;;;;;;;14.37;10.53;;;6.70;99.90;;;;;;5007498;28;20462;-73
2021/04/13 09:11:04;;;;;;;20.77;10.87;;;6.70;99.90;;;;;;5003938;28;20446;-73
2021/04/13 09:13:40;;;;;;;12.93;11.47;;;6.80;99.90;;;;;;5009521;28;20454;-74
2021/04/13 09:16:06;;;;;;;15.37;10.53;;;6.90;99.90;;;;;;5009544;28;20429;-74
2021/04/13 09:18:46;;;;;;;16.03;10.53;;;7.00;99.90;;;;;;5010451;28;20434;-72
2021/04/13 09:21:23;;;;;;;18.73;11.87;;;7.10;99.90;;;;;;5010846;28;20169;-74
2021/04/13 09:24:13;;;;;;;15.37;11.20;;;7.30;99.90;;;;;;5010547;28;21071;-73
2021/04/13 09:26:57;;;;;;;16.40;11.37;;;7.60;99.90;;;;;;5010439;28;20438;-72
2021/04/13 09:29:50;;;;;;;10.07;9.03;;;7.80;99.90;;;;;;5009291;28;20505;-73
2021/04/13 09:32:25;;;;;;;13.77;10.83;;;7.90;99.90;;;;;;5010531;28;20437;-71
2021/04/13 09:34:54;;;;;;;13.07;10.27;;;8.20;99.90;;;;;;5009416;28;20430;-72
2021/04/13 09:37:55;;;;;;;12.47;11.00;;;8.30;99.90;;;;;;5008181;28;20548;-74
2021/04/13 09:40:29;;;;;;;15.37;12.00;;;8.30;99.80;;;;;;5010777;28;20409;-73
2021/04/13 09:43:03;;;;;;;18.87;13.17;;;7.80;99.80;;;;;;4991044;28;20502;-73
2021/04/13 09:46:06;;;;;;;11.90;9.03;;;7.60;99.90;;;;;;5004139;28;20428;-73
2021/04/13 09:48:56;;;;;;;10.17;9.07;;;7.30;99.90;;;;;;4999117;28;20483;-74
2021/04/13 09:51:54;;;;;;;12.20;9.23;;;6.90;99.90;;;;;;5007911;28;20746;-73
2021/04/13 09:54:30;;;;;;;13.47;8.37;;;6.80;99.90;;;;;;5008261;28;20594;-73
2021/04/13 09:57:13;;;;;;;14.33;9.30;;;6.80;99.90;;;;;;5013532;28;20426;-73
2021/04/13 09:59:47;;;;;;;13.30;8.23;;;7.00;99.90;;;;;;5013411;28;20410;-73
2021/04/13 10:02:35;;;;;;;8.60;6.60;;;7.30;99.90;;;;;;5014647;28;20762;-74
2021/04/13 10:05:10;;;;;;;9.33;6.77;;;7.50;99.90;;;;;;5013949;28;20908;-72
2021/04/13 10:08:02;;;;;;;14.50;6.57;;;7.60;99.50;;;;;;5012184;28;20430;-71
2021/04/13 10:11:11;;;;;;;12.53;6.87;;;8.00;99.00;;;;;;5013777;28;20403;-72
2021/04/13 10:14:22;;;;;;;8.80;5.70;;;8.40;98.50;;;;;;5010151;28;20961;-72
2021/04/13 10:17:13;;;;;;;6.43;5.30;;;8.70;98.00;;;;;;4994372;28;20427;-74
2021/04/13 10:19:54;;;;;;;9.13;6.47;;;8.80;97.50;;;;;;4993911;28;20407;-72
2021/04/13 10:22:48;;;;;;;13.30;5.60;;;8.80;97.20;;;;;;4993805;28;20437;-72
2021/04/13 10:25:39;;;;;;;6.30;3.73;;;8.60;96.50;;;;;;4997039;28;20436;-72
2021/04/13 10:28:49;;;;;;;5.40;2.97;;;8.20;94.50;;;;;;4998013;28;20952;-73
2021/04/13 10:31:52;;;;;;;5.43;3.07;;;7.70;95.00;;;;;;4998211;28;20427;-72
2021/04/13 10:34:47;;;;;;;8.63;2.70;;;7.40;95.60;;;;;;4997986;28;20513;-73
2021/04/13 10:37:33;;;;;;;6.70;4.23;;;7.30;96.00;;;;;;4997965;28;20963;-73
2021/04/13 10:40:19;;;;;;;3.83;2.77;;;7.20;96.30;;;;;;4996922;28;20553;-72
2021/04/13 10:43:08;;;;;;;4.00;2.53;;;7.30;96.50;;;;;;5012605;28;20420;-73
2021/04/13 10:46:05;;;;;;;3.73;2.17;;;7.60;96.70;;;;;;4997833;28;20418;-73
2021/04/13 10:48:54;;;;;;;7.27;2.50;;;7.90;95.10;;;;;;4997261;28;20451;-73
2021/04/13 10:51:49;;;;;;;4.33;2.50;;;8.20;95.00;;;;;;5015562;28;21067;-72
2021/04/13 10:54:39;;;;;;;5.20;2.83;;;8.60;94.70;;;;;;4995500;28;20412;-73
2021/04/13 10:57:42;;;;;;;9.53;3.00;;;8.70;93.30;;;;;;5031264;28;20441;-73
2021/04/13 11:00:30;;;;;;;7.73;3.30;;;8.70;92.30;;;;;;5035589;28;20918;-73
2021/04/13 11:03:27;;;;;;;4.10;2.53;;;8.90;91.70;;;;;;5021566;28;20446;-73
2021/04/13 11:06:21;;;;;;;5.63;3.77;;;8.70;92.10;;;;;;5016806;28;20475;-73
2021/04/13 11:08:59;;;;;;;7.13;3.83;;;8.70;92.70;;;;;;5024309;28;21152;-73
2021/04/13 11:11:43;;;;;;;10.10;5.27;;;8.70;92.80;;;;;;5036525;28;20397;-72
2021/04/13 11:14:08;;;;;;;4.30;3.90;;;8.60;92.30;;;;;;5023201;28;20530;-72
2021/04/13 11:16:47;;;;;;;4.63;3.47;;;8.50;91.30;;;;;;5016278;28;20468;-73
2021/04/13 11:19:25;;;;;;;3.40;3.10;;;8.30;91.00;;;;;;5015741;28;20225;-73
2021/04/13 11:22:08;;;;;;;3.70;3.30;;;8.40;91.50;;;;;;5017354;28;20534;-74
2021/04/13 11:25:27;;;;;;;4.17;3.03;;;8.30;90.50;;;;;;5018482;28;20469;-73
2021/04/13 11:28:04;;;;;;;5.07;3.80;;;8.40;90.90;;;;;;5036508;28;20457;-73
2021/04/13 11:30:42;;;;;;;5.63;3.47;;;8.60;90.70;;;;;;4998032;28;20399;-74
2021/04/13 11:33:17;;;;;;;4.57;2.93;;;8.60;90.60;;;;;;4997842;28;20459;-74
2021/04/13 11:36:05;;;;;;;4.53;2.80;;;8.60;90.50;;;;;;5012195;28;20808;-71
2021/04/13 11:38:55;;;;;;;5.53;2.63;;;8.70;90.80;;;;;;4997544;28;20497;-73
2021/04/13 11:41:41;;;;;;;2.80;1.80;;;8.70;88.80;;;;;;5014965;28;20901;-73
2021/04/13 11:44:35;;;;;;;7.40;1.97;;;8.70;88.30;;;;;;5007355;28;20442;-73
2021/04/13 11:47:20;;;;;;;5.07;3.20;;;8.60;87.50;;;;;;5015537;28;20480;-73
2021/04/13 11:50:24;;;;;;;3.57;2.97;;;8.60;91.00;;;;;;5014948;28;20668;-73
2021/04/13 11:53:01;;;;;;;8.53;3.60;;;8.60;92.30;;;;;;5014058;28;20509;-73
2021/04/13 11:55:30;;;;;;;9.20;4.17;;;8.60;92.40;;;;;;5016156;28;20407;-73
2021/04/13 11:58:17;;;;;;;7.13;3.20;;;8.60;92.40;;;;;;5015751;28;20842;-72
2021/04/13 12:00:45;;;;;;;4.17;2.63;;;8.60;92.40;;;;;;5029751;28;20887;-72
2021/04/13 12:03:20;;;;;;;3.00;2.70;;;8.60;92.70;;;;;;5035790;28;20469;-73
2021/04/13 12:06:00;;;;;;;2.87;2.57;;;8.60;92.80;;;;;;5035597;28;20480;-71
2021/04/13 12:08:28;;;;;;;4.50;2.87;;;8.80;92.70;;;;;;5035029;28;21073;-72
2021/04/13 12:10:58;;;;;;;3.10;2.50;;;9.00;91.90;;;;;;5035078;28;20917;-72
2021/04/13 12:13:49;;;;;;;5.50;2.87;;;9.20;91.30;;;;;;5022666;28;20437;-72
2021/04/13 12:16:16;;;;;;;2.90;2.30;;;9.30;90.30;;;;;;5026121;28;20921;-73
2021/04/13 12:19:05;;;;;;;4.73;2.27;;;9.40;89.30;;;;;;5035205;28;20415;-72
2021/04/13 12:21:31;;;;;;;4.97;2.07;;;9.40;86.60;;;;;;4995582;28;20433;-72
2021/04/13 12:23:59;;;;;;;3.73;2.00;;;9.10;84.30;;;;;;5022089;28;20456;-72
2021/04/13 12:26:38;;;;;;;3.90;1.80;;;8.90;82.80;;;;;;5022584;28;20580;-72
2021/04/13 12:29:29;;;;;;;2.70;2.20;;;8.70;82.40;;;;;;5017430;28;20473;-72
2021/04/13 12:32:13;;;;;;;2.90;1.90;;;8.70;82.40;;;;;;5026316;28;20399;-72
2021/04/13 12:34:59;;;;;;;2.60;1.93;;;8.90;82.00;;;;;;5027122;28;20407;-72
2021/04/13 12:37:43;;;;;;;4.27;2.30;;;9.00;81.00;;;;;;5015155;28;20469;-72
2021/04/13 12:40:21;;;;;;;2.10;1.50;;;9.20;82.80;;;;;;5024585;28;20457;-72
2021/04/13 12:42:48;;;;;;;4.10;1.80;;;9.20;76.60;;;;;;5014281;28;20417;-71
2021/04/13 12:45:22;;;;;;;3.17;1.50;;;9.10;73.50;;;;;;5033276;28;20416;-72
2021/04/13 12:48:08;;;;;;;2.87;1.60;;;9.10;72.90;;;;;;5027028;28;20812;-71
2021/04/13 12:50:36;;;;;;;3.03;1.67;;;9.10;71.10;;;;;;5026728;28;20497;-72
2021/04/13 12:53:09;;;;;;;2.83;1.70;;;8.90;70.20;;;;;;5016326;28;20410;-71
2021/04/13 12:55:34;;;;;;;2.93;1.60;;;8.90;70.20;;;;;;5029231;28;20403;-73
2021/04/13 12:58:08;;;;;;;7.10;2.63;;;8.90;70.40;;;;;;5022731;28;20440;-72
2021/04/13 13:00:37;;;;;;;4.20;2.20;;;8.80;69.50;;;;;;5021017;28;20328;-74
2021/04/13 13:03:29;;;;;;;2.57;1.50;;;9.00;70.80;;;;;;5015071;28;20788;-72
2021/04/13 13:05:54;;;;;;;2.63;1.60;;;9.20;64.00;;;;;;5025080;28;20477;-72
2021/04/13 13:08:29;;;;;;;3.60;1.87;;;9.20;63.50;;;;;;5024201;28;20449;-73
2021/04/13 13:10:57;;;;;;;2.60;1.77;;;9.30;64.90;;;;;;5018152;28;20578;-73
2021/04/13 13:13:28;;;;;;;2.00;1.90;;;9.30;65.60;;;;;;5030001;28;20410;-73
2021/04/13 13:15:55;;;;;;;5.10;2.00;;;9.30;68.20;;;;;;5012877;28;20848;-73
2021/04/13 13:18:35;;;;;;;2.63;2.10;;;9.10;69.40;;;;;;5025089;28;20440;-72
2021/04/13 13:21:14;;;;;;;5.60;2.23;;;9.00;70.30;;;;;;5017422;28;20410;-73
2021/04/13 13:23:41;;;;;;;3.83;2.30;;;8.90;70.30;;;;;;5033568;28;20443;-72
2021/04/13 13:26:25;;;;;;;1.83;1.60;;;8.70;70.30;;;;;;5033928;28;20803;-74
2021/04/13 13:28:51;;;;;;;3.83;2.60;;;8.70;67.90;;;;;;5034514;28;20495;-72
2021/04/13 13:31:26;;;;;;;2.73;1.77;;;8.80;67.30;;;;;;5034193;28;20402;-72
2021/04/13 13:34:25;;;;;;;2.40;1.50;;;9.00;66.90;;;;;;5028646;28;20595;-72